Amlin, Ohio
Current Conditions -  °F | °C
As of 1:53 PM on Friday 28 Nov 2014 (Local Time) from KOSU Reporting Station
Overcast Overcast  
Wind Chill: 19°   Ceiling: 5500
Heat Index: 29°   Visibility: 10mi
Dew Point: 18°   Wind: 12mph
Humidity: 64%   Direction: 200°SSW
Pressure: 30.27"   Gusts: NA
Location:  40.08°N, 83.18°W
Report Text: KOSU 281853Z 20010KT 10SM FEW029 BKN055 OVC070 M02/M08 A3027 RMK AO2 SLP260 T10171078
Loading
Personal Weather Stations






























Interactive Weather Map New forecast layout! Learn more

10-Day Weather Forecast

Advertisements
Track Severe Weather on mobile